This is the latest recevied weather packets stored in our database for station/object F4GQK-13. If no packets are shown the sender has not sent any weather packets the latest 10 day(s).
| Time | Temp. | Humidity | Pressure | Rain* | Wind** | Luminosity | Snow |
|---|---|---|---|---|---|---|---|
| 1777288805 | 21.67° C | 48% | 1021.8 hPa | 0 mm | - | 679 W/m² | - |
| 1777288504 | 21.67° C | 49% | 1022 hPa | 0 mm | - | 708 W/m² | - |
| 1777288205 | 21.11° C | 51% | 1021.8 hPa | 0 mm | - | 652 W/m² | - |
| 1777287905 | 21.11° C | 49% | 1022 hPa | 0 mm | - | 589 W/m² | - |
| 1777287606 | 21.11° C | 51% | 1021.9 hPa | 0 mm | - | 555 W/m² | - |
| 1777287305 | 20.56° C | 51% | 1022 hPa | 0 mm | - | 571 W/m² | - |
| 1777287005 | 19.44° C | 51% | 1022.1 hPa | 0 mm | - | 585 W/m² | - |
| 1777286706 | 20.56° C | 52% | 1022.1 hPa | 0 mm | - | 561 W/m² | - |
| 1777286405 | 20° C | 53% | 1022.2 hPa | 0 mm | - | 577 W/m² | - |
| 1777286105 | 20° C | 53% | 1022.2 hPa | 0 mm | - | 590 W/m² | - |
| 1777285805 | 20.56° C | 52% | 1022.4 hPa | 0 mm | - | 618 W/m² | - |
| 1777285505 | 20° C | 55% | 1022.2 hPa | 0 mm | - | 595 W/m² | - |
| 1777285205 | 20.56° C | 52% | 1022.5 hPa | 0 mm | - | 631 W/m² | - |
| 1777284906 | 20° C | 53% | 1022.3 hPa | 0 mm | - | 610 W/m² | - |
| 1777284606 | 20° C | 54% | 1022.3 hPa | 0 mm | - | 576 W/m² | - |
| 1777284305 | 19.44° C | 52% | 1022.3 hPa | 0 mm | - | 583 W/m² | - |
| 1777284005 | 19.44° C | 54% | 1022.2 hPa | 0 mm | - | 486 W/m² | - |
| 1777283705 | 19.44° C | 52% | 1022.3 hPa | 0 mm | - | 569 W/m² | - |
| 1777283405 | 18.89° C | 54% | 1022.3 hPa | 0 mm | - | 525 W/m² | - |
| 1777283106 | 18.89° C | 53% | 1022.3 hPa | 0 mm | - | 459 W/m² | - |
| 1777282805 | 18.33° C | 57% | 1022.6 hPa | 0 mm | - | 503 W/m² | - |
| 1777282506 | 17.78° C | 58% | 1022.5 hPa | 0 mm | - | 500 W/m² | - |
| 1777282203 | 17.78° C | 57% | 1022.5 hPa | 0 mm | - | 472 W/m² | - |
| 1777281905 | 17.78° C | 57% | 1022.5 hPa | 0 mm | - | 451 W/m² | - |
| 1777281605 | 18.33° C | 61% | 1022.5 hPa | 0 mm | - | 420 W/m² | - |
* Rain latest hour (hover to see other rain measurements)
** Current wind speed in m/s (hover to see current wind gust speed)